Погода Романовскаяна неделю

Ростовская область, Россия

21 - 27 мая
  • 21мая
    Сегодня
    +15°
    +25°
    Ясно и безоблачно
    ВремяПогодаТемператураВлажностьДавлениеВетер, м/сВероятность осадков
    00:00Ясно и безоблачно+16°C58 %761 мм1.3 м/с2 %
    03:00Ясно и безоблачно+15°C75 %762 мм1.5 м/с2 %
    06:00Ясно и безоблачно+16°C78 %762 мм1.5 м/с2 %
    09:00Ясно и безоблачно+20°C43 %763 мм1.8 м/с2 %
    12:00Практически безоблачно+23°C29 %763 мм2.3 м/с2 %
    15:00Ясно и безоблачно+24°C25 %762 мм2.3 м/с2 %
    18:00Ясно и безоблачно+24°C31 %761 мм1.3 м/с2 %
    21:00Ясно и безоблачно+20°C54 %762 мм1.4 м/с2 %
  • 22мая
    Среда
    +15°
    +26°
    Ясно и безоблачно
    ВремяПогодаТемператураВлажностьДавлениеВетер, м/сВероятность осадков
    00:00Ясно и безоблачно+17°C48 %761 мм1.4 м/с2 %
    03:00Ясно и безоблачно+16°C56 %761 мм1.4 м/с2 %
    06:00Ясно и безоблачно+17°C60 %761 мм1.6 м/с2 %
    09:00Ясно и безоблачно+22°C35 %762 мм1.8 м/с2 %
    12:00Ясно и безоблачно+25°C24 %761 мм2.6 м/с2 %
    15:00Ясно и безоблачно+26°C26 %760 мм2.9 м/с2 %
    18:00Ясно и безоблачно+25°C30 %759 мм2.0 м/с2 %
    21:00Ясно и безоблачно+21°C44 %760 мм1.6 м/с2 %
  • 23мая
    Четверг
    +15°
    +26°
    Ясно и безоблачно
    ВремяПогодаТемператураВлажностьДавлениеВетер, м/сВероятность осадков
    00:00Ясно и безоблачно+18°C49 %759 мм1.8 м/с2 %
    03:00Ясно и безоблачно+16°C52 %760 мм1.9 м/с2 %
    06:00Ясно и безоблачно+16°C58 %760 мм1.6 м/с2 %
    09:00Ясно и безоблачно+21°C39 %760 мм2.3 м/с2 %
    12:00Ясно и безоблачно+24°C29 %760 мм3.0 м/с2 %
    15:00Ясно и безоблачно+26°C28 %759 мм3.9 м/с2 %
    18:00Практически безоблачно+23°C52 %759 мм3.7 м/с3 %
    21:00Небольшая облачность+20°C63 %760 мм3.9 м/с2 %
  • 24мая
    Пятница
    +12°
    +22°
    Ясно и безоблачно
    ВремяПогодаТемператураВлажностьДавлениеВетер, м/сВероятность осадков
    00:00Ясно и безоблачно+18°C68 %761 мм3.3 м/с2 %
    03:00Ясно и безоблачно+16°C63 %762 мм5.1 м/с2 %
    06:00Ясно и безоблачно+15°C52 %764 мм5.4 м/с2 %
    09:00Ясно и безоблачно+17°C42 %765 мм5.7 м/с2 %
    12:00Ясно и безоблачно+21°C35 %765 мм6.1 м/с2 %
    15:00Ясно и безоблачно+22°C26 %765 мм6.2 м/с2 %
    18:00Ясно и безоблачно+21°C27 %765 мм4.7 м/с2 %
    21:00Ясно и безоблачно+18°C33 %766 мм5.1 м/с2 %
  • 25мая
    Суббота
    +16°
    +23°
    Облачно с прояснениями
    ВремяПогодаТемператураВлажностьДавлениеВетер, м/сВероятность осадков
    00:00Ясно и безоблачно+15°C35 %767 мм4.3 м/с2 %
    03:00Ясно и безоблачно+13°C39 %767 мм5.0 м/с2 %
    06:00Ясно и безоблачно+13°C42 %768 мм5.2 м/с2 %
    09:00Ясно и безоблачно+17°C33 %768 мм6.0 м/с2 %
    12:00Ясно и безоблачно+21°C22 %767 мм6.0 м/с2 %
    15:00Облачно с прояснениями+23°C22 %766 мм5.8 м/с2 %
    18:00Облачно с прояснениями+21°C25 %765 мм3.9 м/с2 %
    21:00Пасмурно, сплошная облачность+19°C26 %765 мм4.9 м/с2 %
Мы используем cookies
Соглашаюсь